createdAt,value
2018-07-23T00:02:04.686Z,74.10
2018-07-23T00:04:33.112Z,73.70
2018-07-23T00:07:01.545Z,73.50
2018-07-23T00:09:30.089Z,73.70
2018-07-23T00:11:58.481Z,74.00
2018-07-23T00:14:27.004Z,74.40
2018-07-23T00:16:55.440Z,75.10
2018-07-23T00:19:23.852Z,75.80
2018-07-23T00:21:52.324Z,76.10
2018-07-23T00:24:20.783Z,76.70
2018-07-23T00:26:49.168Z,76.40
2018-07-23T00:29:18.075Z,76.40
2018-07-23T00:31:46.493Z,75.90
2018-07-23T00:34:14.901Z,76.60
2018-07-23T00:36:44.013Z,76.90
2018-07-23T00:39:12.429Z,77.20
2018-07-23T00:41:40.844Z,77.50
2018-07-23T00:44:09.245Z,77.20
2018-07-23T00:46:37.667Z,77.20
2018-07-23T00:49:06.122Z,77.40
2018-07-23T00:51:34.578Z,77.40
2018-07-23T00:54:03.300Z,78.20
2018-07-23T00:56:31.761Z,78.40
2018-07-23T00:59:00.181Z,77.70
2018-07-23T01:03:56.680Z,77.10
2018-07-23T01:06:25.148Z,77.20
2018-07-23T01:08:53.556Z,77.50
2018-07-23T01:11:22.019Z,77.50
2018-07-23T01:13:50.452Z,77.30
2018-07-23T01:16:19.427Z,77.40
2018-07-23T01:18:47.832Z,77.50
2018-07-23T01:21:16.349Z,77.50
2018-07-23T01:23:44.804Z,77.90
2018-07-23T01:26:13.240Z,77.70
2018-07-23T01:28:41.671Z,78.40
2018-07-23T01:31:10.084Z,78.60
2018-07-23T01:33:38.493Z,78.80
2018-07-23T01:36:07.677Z,78.90
2018-07-23T01:38:36.075Z,78.70
2018-07-23T01:41:04.540Z,78.70
2018-07-23T01:43:33.124Z,78.70
2018-07-23T01:46:01.548Z,79.00
2018-07-23T01:48:30.717Z,79.40
2018-07-23T01:50:59.164Z,80.00
2018-07-23T01:53:27.663Z,80.00
2018-07-23T01:55:56.121Z,80.10
2018-07-23T01:58:24.518Z,79.90
2018-07-23T02:00:53.737Z,79.90
2018-07-23T02:03:22.132Z,80.10
2018-07-23T02:05:50.539Z,80.60
2018-07-23T02:08:18.993Z,80.30
2018-07-23T02:10:47.436Z,80.20
2018-07-23T02:13:15.852Z,80.00
2018-07-23T02:15:44.260Z,80.10
2018-07-23T02:18:12.771Z,80.40
2018-07-23T02:20:41.505Z,80.80
2018-07-23T02:23:09.892Z,80.90
2018-07-23T02:25:38.436Z,80.80
2018-07-23T02:28:06.861Z,80.30
2018-07-23T02:30:35.281Z,80.70
2018-07-23T02:33:03.776Z,80.70
2018-07-23T02:35:32.666Z,80.80
2018-07-23T02:38:01.122Z,80.90
2018-07-23T02:40:29.648Z,81.20
2018-07-23T02:42:58.113Z,81.10
2018-07-23T02:45:27.254Z,80.80
2018-07-23T02:47:55.704Z,80.60
2018-07-23T02:50:24.282Z,80.50
2018-07-23T02:52:52.760Z,80.40
2018-07-23T02:55:27.625Z,80.80
2018-07-23T02:57:56.075Z,81.40
2018-07-23T03:00:24.508Z,81.30
2018-07-23T03:02:52.956Z,80.80
2018-07-23T03:05:22.053Z,81.60
2018-07-23T03:07:50.473Z,81.90
2018-07-23T03:10:18.959Z,81.60
2018-07-23T03:12:48.104Z,81.60
2018-07-23T03:15:16.547Z,82.10
2018-07-23T03:17:44.965Z,82.80
2018-07-23T03:20:13.410Z,83.60
2018-07-23T03:22:41.854Z,83.90
2018-07-23T03:25:10.290Z,83.60
2018-07-23T03:27:38.797Z,83.80
2018-07-23T03:30:07.292Z,83.70
2018-07-23T03:32:35.711Z,84.00
2018-07-23T03:35:04.296Z,83.30
2018-07-23T03:37:32.692Z,83.50
2018-07-23T03:40:01.434Z,82.50
2018-07-23T03:42:30.500Z,83.10
2018-07-23T03:44:59.013Z,82.60
2018-07-23T03:47:27.409Z,83.20
2018-07-23T03:49:55.968Z,83.70
2018-07-23T03:52:24.403Z,83.40
2018-07-23T03:54:52.990Z,84.00
2018-07-23T03:57:21.470Z,82.70
2018-07-23T03:59:49.932Z,83.30
2018-07-23T04:02:18.373Z,84.20
2018-07-23T04:04:46.770Z,84.70
2018-07-23T04:07:15.220Z,84.50
2018-07-23T04:09:44.258Z,84.60
2018-07-23T04:12:12.669Z,84.80
2018-07-23T04:14:41.064Z,83.70
2018-07-23T04:17:10.157Z,84.10
2018-07-23T04:19:38.672Z,84.10
2018-07-23T04:22:07.148Z,84.30
2018-07-23T04:24:35.552Z,84.10
2018-07-23T04:27:04.074Z,83.50
2018-07-23T04:29:32.511Z,83.30
2018-07-23T04:32:01.048Z,83.60
2018-07-23T04:34:29.595Z,84.00
2018-07-23T04:36:58.024Z,84.70
2018-07-23T04:39:26.477Z,83.50
2018-07-23T04:41:54.868Z,83.30
2018-07-23T04:44:23.884Z,82.90
2018-07-23T04:46:52.376Z,83.00
2018-07-23T04:49:20.848Z,83.20
2018-07-23T04:51:49.245Z,83.10
2018-07-23T04:54:17.709Z,82.80
2018-07-23T04:56:46.214Z,83.30
2018-07-23T04:59:14.691Z,83.60
2018-07-23T05:01:43.622Z,83.30
2018-07-23T05:04:12.105Z,83.30
2018-07-23T05:06:40.484Z,83.70
2018-07-23T05:09:10.837Z,84.10
2018-07-23T05:11:39.600Z,84.10
2018-07-23T05:14:08.563Z,84.20
2018-07-23T05:16:37.100Z,83.80
2018-07-23T05:19:05.580Z,83.80
2018-07-23T05:21:33.984Z,84.80
2018-07-23T05:24:02.674Z,83.50
2018-07-23T05:26:31.476Z,84.00
2018-07-23T05:28:59.963Z,83.90
2018-07-23T05:31:28.389Z,84.00
2018-07-23T05:33:56.861Z,83.90
2018-07-23T05:36:25.618Z,83.60
2018-07-23T05:38:54.071Z,83.80
2018-07-23T05:41:22.480Z,83.00
2018-07-23T05:43:51.024Z,82.80
2018-07-23T05:46:19.832Z,82.30
2018-07-23T05:48:48.590Z,82.70
2018-07-23T05:51:17.028Z,82.50
2018-07-23T05:53:45.464Z,80.80
2018-07-23T05:56:13.932Z,80.90
2018-07-23T05:58:42.361Z,79.80
2018-07-23T06:01:10.771Z,79.10
2018-07-23T06:03:39.227Z,78.30
2018-07-23T06:06:08.292Z,77.30
2018-07-23T06:08:36.769Z,77.80
2018-07-23T06:11:05.575Z,78.10
2018-07-23T06:13:34.130Z,78.50
2018-07-23T06:16:03.402Z,77.70
2018-07-23T06:18:31.842Z,77.50
2018-07-23T06:21:00.382Z,78.80
2018-07-23T06:23:28.813Z,76.60
2018-07-23T06:25:57.246Z,76.20
2018-07-23T06:28:25.756Z,74.70
2018-07-23T06:30:54.224Z,75.10
2018-07-23T06:33:22.796Z,73.70
2018-07-23T06:35:51.261Z,74.50
2018-07-23T06:38:19.802Z,74.40
2018-07-23T06:40:48.248Z,73.90
2018-07-23T06:43:16.750Z,74.70
2018-07-23T06:45:45.837Z,72.40
2018-07-23T06:48:14.265Z,72.50
2018-07-23T06:50:42.677Z,72.20
2018-07-23T06:53:11.664Z,73.00
2018-07-23T06:55:40.144Z,72.70
2018-07-23T06:58:08.609Z,72.20
2018-07-23T07:00:37.047Z,72.30
2018-07-23T07:03:05.583Z,71.80
2018-07-23T07:05:33.992Z,70.60
2018-07-23T07:08:02.408Z,71.40
2018-07-23T07:10:31.016Z,70.50
2018-07-23T07:12:59.480Z,68.60
2018-07-23T07:15:27.905Z,68.80
2018-07-23T07:17:56.368Z,66.60
2018-07-23T07:20:24.848Z,67.20
2018-07-23T07:22:53.268Z,66.20
2018-07-23T07:25:21.723Z,66.20
2018-07-23T07:27:50.157Z,65.70
2018-07-23T07:30:18.636Z,66.70
2018-07-23T07:32:47.256Z,64.60
2018-07-23T07:35:15.705Z,64.30
2018-07-23T07:37:44.125Z,63.80
2018-07-23T07:40:12.539Z,63.20
2018-07-23T07:42:40.988Z,62.60
2018-07-23T07:45:09.465Z,63.20
2018-07-23T07:47:37.876Z,63.80
2018-07-23T07:50:06.408Z,63.90
2018-07-23T07:52:34.913Z,63.90
2018-07-23T07:55:03.361Z,64.90
2018-07-23T07:57:31.773Z,64.10
2018-07-23T08:00:00.211Z,62.20
2018-07-23T08:02:29.429Z,61.40
2018-07-23T08:04:57.863Z,61.30
2018-07-23T08:07:26.585Z,60.80
2018-07-23T08:09:55.052Z,60.80
2018-07-23T08:12:23.498Z,58.80
2018-07-23T08:14:51.977Z,59.00
2018-07-23T08:17:21.285Z,57.60
2018-07-23T08:19:49.724Z,59.90
2018-07-23T08:22:18.217Z,59.70
2018-07-23T08:24:46.669Z,56.90
2018-07-23T08:27:15.852Z,57.50
2018-07-23T08:29:44.376Z,58.50
2018-07-23T08:32:12.979Z,57.00
2018-07-23T08:34:41.305Z,56.50
2018-07-23T08:37:09.805Z,58.90
2018-07-23T08:39:38.270Z,57.90
2018-07-23T08:42:07.377Z,58.60
2018-07-23T08:44:35.872Z,58.30
2018-07-23T08:47:04.402Z,57.00
2018-07-23T08:49:32.858Z,55.90
2018-07-23T08:52:01.314Z,55.90
2018-07-23T08:54:29.964Z,56.10
2018-07-23T08:56:58.380Z,55.80
2018-07-23T08:59:26.888Z,54.30
2018-07-23T09:01:55.322Z,54.60
2018-07-23T09:04:24.031Z,55.30
2018-07-23T09:06:53.333Z,54.20
2018-07-23T09:09:21.765Z,53.60
2018-07-23T09:11:50.489Z,53.00
2018-07-23T09:14:19.032Z,54.30
2018-07-23T09:16:48.061Z,54.50
2018-07-23T09:19:17.084Z,54.20
2018-07-23T09:21:45.556Z,55.00
2018-07-23T09:24:13.960Z,54.40
2018-07-23T09:26:42.432Z,52.60
2018-07-23T09:29:11.040Z,54.20
2018-07-23T09:31:40.529Z,53.80
2018-07-23T09:34:09.109Z,52.80
2018-07-23T09:36:37.585Z,53.20
2018-07-23T09:39:08.944Z,52.80
2018-07-23T09:41:37.428Z,51.80
2018-07-23T09:44:05.972Z,50.70
2018-07-23T09:46:34.455Z,50.20
2018-07-23T09:49:03.027Z,50.10
2018-07-23T09:51:31.554Z,50.20
2018-07-23T09:53:59.968Z,49.60
2018-07-23T10:01:25.054Z,48.60
2018-07-23T10:03:53.576Z,48.80
2018-07-23T10:06:22.093Z,49.10
2018-07-23T10:08:50.571Z,49.80
2018-07-23T10:11:19.158Z,48.70
2018-07-23T10:13:47.648Z,49.10
2018-07-23T10:16:16.199Z,48.60
2018-07-23T10:18:44.796Z,48.10
2018-07-23T10:21:13.287Z,47.90
2018-07-23T10:23:41.787Z,48.20
2018-07-23T10:26:10.273Z,49.30
2018-07-23T10:28:38.754Z,47.20
2018-07-23T10:31:09.092Z,48.30
2018-07-23T10:33:37.604Z,48.80
2018-07-23T10:38:34.620Z,50.30
2018-07-23T10:41:03.139Z,48.90
2018-07-23T10:43:31.574Z,48.90
2018-07-23T10:46:00.029Z,48.10
2018-07-23T10:48:28.486Z,47.90
2018-07-23T10:50:57.020Z,48.00
2018-07-23T10:53:25.484Z,47.30
2018-07-23T10:55:53.986Z,46.80
2018-07-23T10:58:22.529Z,45.60
2018-07-23T11:03:19.173Z,47.60
2018-07-23T11:05:47.633Z,47.10
2018-07-23T11:08:16.200Z,46.20
2018-07-23T11:10:44.680Z,46.40
2018-07-23T11:13:13.283Z,45.80
2018-07-23T11:15:41.796Z,46.30
2018-07-23T11:18:10.266Z,46.70
2018-07-23T11:20:38.677Z,45.20
2018-07-23T11:23:07.149Z,45.00
2018-07-23T11:25:39.673Z,46.10
2018-07-23T11:28:04.116Z,45.90
2018-07-23T11:30:32.719Z,45.50
2018-07-23T11:33:01.189Z,45.80
2018-07-23T11:35:29.718Z,43.90
2018-07-23T11:37:58.169Z,43.90
2018-07-23T11:40:26.617Z,44.30
2018-07-23T11:45:23.356Z,44.70
2018-07-23T11:47:51.789Z,44.50
2018-07-23T11:50:20.272Z,44.70
2018-07-23T11:52:48.865Z,44.30
2018-07-23T11:55:17.301Z,43.60
2018-07-23T11:57:45.741Z,44.20
2018-07-23T12:00:14.263Z,44.00
2018-07-23T12:02:43.188Z,43.70
2018-07-23T12:05:11.638Z,43.90
2018-07-23T12:07:40.147Z,43.20
2018-07-23T12:10:08.652Z,42.80
2018-07-23T12:12:37.126Z,42.30
2018-07-23T12:15:05.629Z,43.00
2018-07-23T12:17:34.143Z,44.10
2018-07-23T12:20:02.617Z,43.00
2018-07-23T12:22:31.117Z,43.80
2018-07-23T12:24:59.577Z,41.40
2018-07-23T12:27:28.008Z,41.40
2018-07-23T12:29:56.440Z,43.50
2018-07-23T12:32:24.968Z,43.20
2018-07-23T12:34:53.396Z,42.70
2018-07-23T12:37:21.837Z,43.30
2018-07-23T12:39:50.395Z,42.20
2018-07-23T12:42:18.862Z,42.40
2018-07-23T12:44:47.277Z,43.20
2018-07-23T12:47:15.808Z,43.90
2018-07-23T12:49:44.615Z,44.20
2018-07-23T12:52:13.201Z,43.60
2018-07-23T12:54:41.650Z,43.90
2018-07-23T12:57:10.248Z,43.20
2018-07-23T12:59:38.747Z,43.00
2018-07-23T13:02:07.292Z,44.10
2018-07-23T13:04:35.913Z,42.70
2018-07-23T13:07:04.376Z,41.40
2018-07-23T13:09:32.885Z,42.30
2018-07-23T13:12:01.324Z,41.00
2018-07-23T13:14:30.630Z,41.30
2018-07-23T13:16:59.111Z,40.50
2018-07-23T13:19:27.550Z,40.90
2018-07-23T13:21:56.012Z,41.10
2018-07-23T13:24:24.627Z,42.20
2018-07-23T13:26:53.235Z,41.70
2018-07-23T13:29:21.862Z,43.20
2018-07-23T13:31:50.413Z,41.60
2018-07-23T13:34:18.915Z,41.00
2018-07-23T13:36:47.380Z,41.30
2018-07-23T13:39:15.882Z,42.10
2018-07-23T13:41:44.405Z,40.70
2018-07-23T13:44:13.480Z,40.90
2018-07-23T13:46:41.962Z,39.40
2018-07-23T13:49:10.424Z,38.40
2018-07-23T13:51:38.898Z,39.60
2018-07-23T13:54:07.351Z,39.10
2018-07-23T13:56:36.161Z,38.00
2018-07-23T13:59:04.706Z,37.60
2018-07-23T14:01:34.032Z,37.10
2018-07-23T14:04:02.513Z,37.90
2018-07-23T14:06:31.675Z,38.00
2018-07-23T14:09:00.152Z,37.90
2018-07-23T14:11:28.592Z,38.20
2018-07-23T14:13:57.117Z,37.90
2018-07-23T14:16:25.631Z,38.50
2018-07-23T14:18:54.142Z,38.10
2018-07-23T14:21:22.565Z,36.50
2018-07-23T14:23:51.044Z,37.00
2018-07-23T14:26:19.496Z,36.60
2018-07-23T14:31:16.173Z,36.80
2018-07-23T14:33:44.674Z,37.40
2018-07-23T14:36:13.129Z,38.10
2018-07-23T14:38:41.590Z,38.80
2018-07-23T14:41:10.032Z,37.10
2018-07-23T14:43:38.774Z,36.20
2018-07-23T14:46:07.216Z,35.80
2018-07-23T14:48:36.372Z,37.10
2018-07-23T14:51:05.119Z,38.00
2018-07-23T14:53:33.599Z,38.60
2018-07-23T14:56:02.124Z,39.00
2018-07-23T14:58:30.687Z,39.10
2018-07-23T15:00:59.180Z,38.60
2018-07-23T15:03:27.714Z,39.30
2018-07-23T15:05:56.136Z,39.90
2018-07-23T15:08:24.683Z,40.60
2018-07-23T15:10:53.434Z,41.70
2018-07-23T15:13:21.901Z,42.40
2018-07-23T15:15:50.458Z,43.00
2018-07-23T15:18:19.143Z,43.90
2018-07-23T15:20:47.686Z,43.90
2018-07-23T15:23:16.227Z,44.50
2018-07-23T15:25:44.689Z,44.40
2018-07-23T15:28:13.234Z,44.30
2018-07-23T15:30:41.717Z,44.70
2018-07-23T15:33:10.261Z,44.50
2018-07-23T15:35:38.817Z,44.90
2018-07-23T15:38:07.304Z,44.60
2018-07-23T15:40:35.761Z,44.70
2018-07-23T15:43:04.271Z,44.70
2018-07-23T15:45:32.878Z,44.80
2018-07-23T15:48:01.257Z,44.90
2018-07-23T15:50:29.847Z,44.60
2018-07-23T15:52:58.335Z,45.10
2018-07-23T15:55:26.789Z,43.10
2018-07-23T15:57:55.243Z,42.90
2018-07-23T16:00:24.471Z,43.50
2018-07-23T16:02:52.909Z,44.40
2018-07-23T16:05:22.338Z,44.00
2018-07-23T16:07:50.777Z,43.50
2018-07-23T16:10:19.252Z,44.10
2018-07-23T16:12:48.500Z,43.80
2018-07-23T16:15:16.944Z,43.60
2018-07-23T16:17:45.597Z,44.00
2018-07-23T16:20:14.261Z,43.60
2018-07-23T16:22:42.737Z,43.80
2018-07-23T16:25:11.932Z,43.20
2018-07-23T16:27:40.445Z,44.30
2018-07-23T16:30:09.509Z,43.50
2018-07-23T16:32:38.325Z,44.00
2018-07-23T16:35:08.621Z,44.20
2018-07-23T16:37:37.178Z,44.80
2018-07-23T16:40:06.603Z,44.90
2018-07-23T16:42:35.082Z,45.10
2018-07-23T16:45:03.629Z,44.90
2018-07-23T16:47:32.761Z,45.20
2018-07-23T16:50:01.229Z,45.60
2018-07-23T16:52:29.689Z,45.60
2018-07-23T16:54:58.405Z,44.90
2018-07-23T16:57:27.188Z,44.80
2018-07-23T16:59:55.746Z,44.30
2018-07-23T17:02:24.581Z,45.20
2018-07-23T17:04:53.090Z,45.10
2018-07-23T17:07:21.608Z,45.20
2018-07-23T17:09:50.077Z,45.50
2018-07-23T17:12:18.647Z,45.60
2018-07-23T17:14:47.088Z,46.30
2018-07-23T17:17:15.755Z,46.30
2018-07-23T17:19:44.403Z,45.60
2018-07-23T17:22:12.836Z,45.70
2018-07-23T17:24:41.303Z,45.70
2018-07-23T17:27:10.185Z,46.20
2018-07-23T17:29:38.617Z,46.20
2018-07-23T17:32:07.064Z,45.80
2018-07-23T17:34:35.629Z,46.10
2018-07-23T17:37:04.821Z,46.60
2018-07-23T17:39:34.072Z,45.80
2018-07-23T17:42:03.335Z,45.70
2018-07-23T17:44:31.828Z,45.40
2018-07-23T17:47:00.255Z,45.70
2018-07-23T17:49:28.738Z,46.20
2018-07-23T17:51:57.264Z,46.40
2018-07-23T17:54:25.873Z,47.20
2018-07-23T17:56:54.466Z,46.70
2018-07-23T17:59:23.540Z,47.40
2018-07-23T18:01:52.026Z,46.90
2018-07-23T18:04:20.462Z,46.80
2018-07-23T18:06:49.107Z,47.30
2018-07-23T18:09:17.681Z,46.90
2018-07-23T18:11:46.180Z,47.20
2018-07-23T18:14:14.661Z,47.00
2018-07-23T18:16:43.088Z,47.80
2018-07-23T18:19:11.561Z,47.90
2018-07-23T18:21:40.144Z,48.60
2018-07-23T18:24:08.881Z,48.10
2018-07-23T18:26:37.412Z,48.00
2018-07-23T18:29:05.885Z,48.90
2018-07-23T18:31:34.376Z,48.30
2018-07-23T18:34:02.791Z,48.30
2018-07-23T18:36:31.267Z,49.60
2018-07-23T18:38:59.723Z,51.20
2018-07-23T18:41:28.265Z,49.70
2018-07-23T18:43:56.745Z,49.60
2018-07-23T18:46:25.168Z,50.20
2018-07-23T18:49:33.624Z,50.20
2018-07-23T18:52:02.474Z,50.70
2018-07-23T18:54:31.927Z,51.40
2018-07-23T18:57:01.541Z,51.80
2018-07-23T18:59:30.896Z,51.30
2018-07-23T19:02:00.042Z,51.40
2018-07-23T19:04:28.595Z,50.30
2018-07-23T19:06:57.201Z,51.40
2018-07-23T19:11:55.547Z,51.40
2018-07-23T19:14:23.995Z,52.30
2018-07-23T19:16:53.486Z,52.50
2018-07-23T19:21:50.180Z,51.00
2018-07-23T19:24:18.655Z,51.10
2018-07-23T19:26:47.276Z,51.30
2018-07-23T19:29:15.745Z,50.70
2018-07-23T19:31:44.215Z,50.40
2018-07-23T19:34:12.897Z,51.10
2018-07-23T19:36:41.442Z,52.80
2018-07-23T19:39:11.556Z,53.60
2018-07-23T19:41:40.288Z,54.20
2018-07-23T19:44:09.849Z,54.20
2018-07-23T19:46:38.555Z,54.10
2018-07-23T19:49:07.055Z,54.30
2018-07-23T19:51:35.756Z,54.80
2018-07-23T19:54:04.453Z,54.80
2018-07-23T19:56:33.273Z,55.30
2018-07-23T19:59:01.712Z,55.60
2018-07-23T20:01:30.268Z,56.20
2018-07-23T20:03:58.772Z,56.40
2018-07-23T20:06:27.928Z,56.90
2018-07-23T20:08:57.338Z,56.90
2018-07-23T20:11:26.717Z,57.50
2018-07-23T20:13:55.207Z,56.90
2018-07-23T20:16:23.692Z,57.50
2018-07-23T20:18:52.300Z,57.80
2018-07-23T20:21:20.753Z,57.30
2018-07-23T20:23:49.413Z,58.30
2018-07-23T20:26:18.662Z,58.80
2018-07-23T20:28:47.266Z,59.10
2018-07-23T20:31:15.865Z,59.60
2018-07-23T20:33:44.317Z,59.90
2018-07-23T20:36:12.848Z,60.40
2018-07-23T20:38:41.381Z,60.30
2018-07-23T20:41:09.975Z,61.30
2018-07-23T20:43:38.397Z,60.90
2018-07-23T20:46:06.976Z,61.30
2018-07-23T20:48:36.426Z,61.60
2018-07-23T20:53:33.089Z,61.70
2018-07-23T20:56:02.429Z,62.00
2018-07-23T20:58:30.900Z,62.50
2018-07-23T21:00:59.341Z,62.40
2018-07-23T21:03:28.005Z,62.60
2018-07-23T21:05:56.408Z,62.40
2018-07-23T21:08:26.114Z,62.50
2018-07-23T21:10:54.568Z,63.50
2018-07-23T21:13:23.060Z,63.30
2018-07-23T21:15:51.609Z,62.20
2018-07-23T21:18:20.079Z,62.00
2018-07-23T21:20:48.734Z,62.00
2018-07-23T21:23:17.245Z,61.80
2018-07-23T21:25:45.748Z,62.10
2018-07-23T21:28:14.770Z,62.00
2018-07-23T21:30:43.362Z,61.60
2018-07-23T21:35:40.285Z,61.60
2018-07-23T21:38:08.831Z,62.10
2018-07-23T21:40:37.523Z,62.40
2018-07-23T21:43:06.345Z,62.60
2018-07-23T21:45:34.887Z,62.50
2018-07-23T21:48:03.432Z,62.90
2018-07-23T21:50:31.924Z,63.10
2018-07-23T21:53:00.488Z,63.70
2018-07-23T21:55:29.092Z,63.50
2018-07-23T21:57:57.529Z,63.70
2018-07-23T22:00:26.043Z,64.40
2018-07-23T22:02:54.516Z,63.80
2018-07-23T22:05:23.199Z,64.90
2018-07-23T22:07:51.701Z,64.80
2018-07-23T22:10:20.213Z,65.50
2018-07-23T22:12:49.636Z,65.00
2018-07-23T22:15:18.157Z,65.50
2018-07-23T22:17:46.669Z,65.80
2018-07-23T22:20:15.194Z,65.60
2018-07-23T22:22:43.696Z,66.10
2018-07-23T22:25:12.210Z,66.30
2018-07-23T22:27:40.663Z,66.90
2018-07-23T22:30:09.308Z,67.30
2018-07-23T22:32:37.793Z,67.20
2018-07-23T22:35:06.336Z,67.80
2018-07-23T22:37:35.558Z,67.50
2018-07-23T22:40:04.068Z,67.30
2018-07-23T22:42:35.072Z,67.70
2018-07-23T22:45:03.561Z,67.50
2018-07-23T22:47:32.029Z,68.10
2018-07-23T22:50:00.443Z,68.50
2018-07-23T22:52:29.620Z,68.70
2018-07-23T22:54:58.056Z,69.20
2018-07-23T22:57:27.116Z,68.30
2018-07-23T22:59:55.568Z,69.10
2018-07-23T23:02:23.991Z,69.90
2018-07-23T23:04:52.585Z,69.00
2018-07-23T23:07:20.992Z,69.60
2018-07-23T23:09:49.446Z,69.80
2018-07-23T23:12:17.953Z,69.90
2018-07-23T23:14:46.432Z,69.70
2018-07-23T23:17:14.892Z,70.00
2018-07-23T23:19:43.312Z,69.80
2018-07-23T23:22:11.760Z,69.50
2018-07-23T23:24:40.309Z,70.00
2018-07-23T23:27:08.737Z,70.00
2018-07-23T23:29:37.155Z,70.00
2018-07-23T23:32:05.815Z,70.10
2018-07-23T23:34:34.311Z,70.20
2018-07-23T23:37:02.760Z,71.20
2018-07-23T23:39:31.204Z,71.80
2018-07-23T23:41:59.632Z,72.70
2018-07-23T23:44:28.047Z,73.10
2018-07-23T23:46:56.699Z,73.00
2018-07-23T23:49:25.131Z,73.10
2018-07-23T23:51:53.595Z,72.40
2018-07-23T23:54:22.044Z,72.20
2018-07-23T23:56:50.479Z,72.80
2018-07-23T23:59:18.873Z,73.10
